createdAt,value
2023-04-29T00:00:11.229Z,17.58
2023-04-29T00:03:02.372Z,8.85
2023-04-29T00:05:50.362Z,9.65
2023-04-29T00:08:38.255Z,8.23
2023-04-29T00:11:25.974Z,6.68
2023-04-29T00:14:14.321Z,5.10
2023-04-29T00:17:02.168Z,4.50
2023-04-29T00:19:51.302Z,6.60
2023-04-29T00:22:39.334Z,5.78
2023-04-29T00:25:27.232Z,5.03
2023-04-29T00:28:14.945Z,4.75
2023-04-29T00:31:02.653Z,4.18
2023-04-29T00:33:50.375Z,11.77
2023-04-29T00:36:41.025Z,5.63
2023-04-29T00:39:31.006Z,3.70
2023-04-29T00:42:18.792Z,5.25
2023-04-29T00:45:08.251Z,3.75
2023-04-29T00:47:56.321Z,6.50
2023-04-29T00:50:44.280Z,10.00
2023-04-29T00:53:33.054Z,4.15
2023-04-29T00:56:24.818Z,7.40
2023-04-29T00:59:12.971Z,3.10
2023-04-29T01:02:02.473Z,6.25
2023-04-29T01:04:50.204Z,6.22
2023-04-29T01:07:55.294Z,6.60
2023-04-29T01:10:53.505Z,7.95
2023-04-29T01:13:50.477Z,3.13
2023-04-29T01:16:44.970Z,1.92
2023-04-29T01:19:50.982Z,6.10
2023-04-29T01:22:40.860Z,2.47
2023-04-29T01:25:29.055Z,2.97
2023-04-29T01:28:57.784Z,7.28
2023-04-29T01:31:52.490Z,5.90
2023-04-29T01:35:00.221Z,1.35
2023-04-29T01:38:16.440Z,4.82
2023-04-29T01:41:16.502Z,4.07
2023-04-29T01:44:08.993Z,4.57
2023-04-29T01:46:57.635Z,4.47
2023-04-29T01:49:55.593Z,4.03
2023-04-29T01:52:43.471Z,3.92
2023-04-29T01:55:31.287Z,5.55
2023-04-29T01:58:33.597Z,4.70
2023-04-29T02:01:50.403Z,4.68
2023-04-29T02:04:38.259Z,2.85
2023-04-29T02:07:26.058Z,7.07
2023-04-29T02:10:13.999Z,6.03
2023-04-29T02:13:07.802Z,5.35
2023-04-29T02:15:58.591Z,5.18
2023-04-29T02:18:46.574Z,3.63
2023-04-29T02:21:35.397Z,3.25
2023-04-29T02:24:23.210Z,6.40
2023-04-29T02:27:10.894Z,3.67
2023-04-29T02:29:58.518Z,9.65
2023-04-29T02:32:46.488Z,4.03
2023-04-29T02:35:35.493Z,11.90
2023-04-29T02:38:23.220Z,4.22
2023-04-29T02:41:10.926Z,3.15
2023-04-29T02:47:08.538Z,1.40
2023-04-29T02:49:56.450Z,3.28
2023-04-29T02:52:46.946Z,1.83
2023-04-29T02:55:34.653Z,2.22
2023-04-29T02:58:28.276Z,2.22
2023-04-29T03:01:16.143Z,6.25
2023-04-29T03:04:05.702Z,5.90
2023-04-29T03:06:56.964Z,2.70
2023-04-29T03:09:47.134Z,3.25
2023-04-29T03:12:35.501Z,3.78
2023-04-29T03:15:23.334Z,4.35
2023-04-29T03:18:11.796Z,8.48
2023-04-29T03:21:00.208Z,4.57
2023-04-29T03:23:48.020Z,5.25
2023-04-29T03:26:43.172Z,5.40
2023-04-29T03:29:31.854Z,3.25
2023-04-29T03:32:19.563Z,6.65
2023-04-29T03:35:07.553Z,8.05
2023-04-29T03:37:59.969Z,2.50
2023-04-29T03:40:51.378Z,9.20
2023-04-29T03:43:41.298Z,4.90
2023-04-29T03:46:29.122Z,3.65
2023-04-29T03:49:16.837Z,6.22
2023-04-29T03:52:05.002Z,9.75
2023-04-29T03:54:52.761Z,5.78
2023-04-29T03:57:42.206Z,3.72
2023-04-29T04:00:31.834Z,9.95
2023-04-29T04:06:12.082Z,4.25
2023-04-29T04:09:02.457Z,4.60
2023-04-29T04:11:52.087Z,8.95
2023-04-29T04:14:40.595Z,4.55
2023-04-29T04:17:30.811Z,12.98
2023-04-29T04:20:18.501Z,7.53
2023-04-29T04:23:07.330Z,6.13
2023-04-29T04:25:55.196Z,4.72
2023-04-29T04:29:21.005Z,9.15
2023-04-29T04:32:20.222Z,8.30
2023-04-29T04:35:08.618Z,7.00
2023-04-29T04:37:56.488Z,5.18
2023-04-29T04:40:45.085Z,4.60
2023-04-29T04:44:05.621Z,4.53
2023-04-29T04:47:12.019Z,7.70
2023-04-29T04:50:20.851Z,9.00
2023-04-29T04:53:10.387Z,7.53
2023-04-29T04:56:22.222Z,10.55
2023-04-29T04:59:12.687Z,17.80
2023-04-29T05:02:01.585Z,18.08
2023-04-29T05:04:50.040Z,7.22
2023-04-29T05:07:40.149Z,8.60
2023-04-29T05:10:34.300Z,5.07
2023-04-29T05:13:26.238Z,5.78
2023-04-29T05:16:14.664Z,8.45
2023-04-29T05:19:09.849Z,6.80
2023-04-29T05:22:03.454Z,8.63
2023-04-29T05:24:53.080Z,3.88
2023-04-29T05:27:42.108Z,4.53
2023-04-29T05:30:35.189Z,11.00
2023-04-29T05:33:23.007Z,6.07
2023-04-29T05:36:10.995Z,2.08
2023-04-29T05:38:59.280Z,2.17
2023-04-29T05:41:47.276Z,4.05
2023-04-29T05:44:42.099Z,3.70
2023-04-29T05:47:30.127Z,2.03
2023-04-29T05:50:18.166Z,2.88
2023-04-29T05:53:05.956Z,9.93
2023-04-29T05:55:54.407Z,5.80
2023-04-29T05:58:42.698Z,14.45
2023-04-29T06:01:30.386Z,6.85
2023-04-29T06:04:19.649Z,2.35
2023-04-29T06:07:20.289Z,4.72
2023-04-29T06:10:28.388Z,5.72
2023-04-29T06:13:16.350Z,5.75
2023-04-29T06:16:04.200Z,11.98
2023-04-29T06:18:55.333Z,2.10
2023-04-29T06:21:46.313Z,2.42
2023-04-29T06:24:33.980Z,3.85
2023-04-29T06:27:22.367Z,5.22
2023-04-29T06:30:10.672Z,4.32
2023-04-29T06:32:59.647Z,3.90
2023-04-29T06:35:47.627Z,7.57
2023-04-29T06:38:55.536Z,2.85
2023-04-29T06:42:12.206Z,1.50
2023-04-29T06:45:20.047Z,2.72
2023-04-29T06:48:20.061Z,6.47
2023-04-29T06:51:08.968Z,5.07
2023-04-29T06:53:58.255Z,1.00
2023-04-29T06:56:45.969Z,1.77
2023-04-29T06:59:33.738Z,1.17
2023-04-29T07:02:25.047Z,1.20
2023-04-29T07:05:13.136Z,3.58
2023-04-29T07:08:03.710Z,1.52
2023-04-29T07:10:58.119Z,3.58
2023-04-29T07:13:45.986Z,5.50
2023-04-29T07:16:33.945Z,1.63
2023-04-29T07:19:21.750Z,1.48
2023-04-29T07:22:09.918Z,3.75
2023-04-29T07:24:57.889Z,0.68
2023-04-29T07:27:49.004Z,5.88
2023-04-29T07:30:39.852Z,3.50
2023-04-29T07:33:28.366Z,2.35
2023-04-29T07:36:17.099Z,1.27
2023-04-29T07:39:05.241Z,4.07
2023-04-29T07:41:53.325Z,1.80
2023-04-29T07:44:41.737Z,3.45
2023-04-29T07:47:29.581Z,1.38
2023-04-29T07:50:20.075Z,3.50
2023-04-29T07:53:07.855Z,1.88
2023-04-29T07:55:57.216Z,1.95
2023-04-29T07:58:47.167Z,6.03
2023-04-29T08:01:34.802Z,0.68
2023-04-29T08:04:25.609Z,1.50
2023-04-29T08:07:20.704Z,7.18
2023-04-29T08:10:09.038Z,1.75
2023-04-29T08:12:58.496Z,1.25
2023-04-29T08:15:46.164Z,0.40
2023-04-29T08:18:34.142Z,1.75
2023-04-29T08:21:21.867Z,3.55
2023-04-29T08:24:09.474Z,2.40
2023-04-29T08:26:57.210Z,1.58
2023-04-29T08:29:44.874Z,1.13
2023-04-29T08:32:32.803Z,4.72
2023-04-29T08:35:20.614Z,4.78
2023-04-29T08:38:10.218Z,1.70
2023-04-29T08:40:58.564Z,1.65
2023-04-29T08:43:46.500Z,1.00
2023-04-29T08:46:35.043Z,0.65
2023-04-29T08:49:22.657Z,1.15
2023-04-29T08:52:10.437Z,3.58
2023-04-29T08:55:05.860Z,0.45
2023-04-29T08:57:56.843Z,2.30
2023-04-29T09:00:45.372Z,2.70
2023-04-29T09:03:52.975Z,2.38
2023-04-29T09:06:44.120Z,2.85
2023-04-29T09:09:33.604Z,3.37
2023-04-29T09:12:22.142Z,1.92
2023-04-29T09:15:37.885Z,2.28
2023-04-29T09:19:12.331Z,3.40
2023-04-29T09:22:00.684Z,4.10
2023-04-29T09:24:49.156Z,2.13
2023-04-29T09:27:37.130Z,4.57
2023-04-29T09:30:27.064Z,1.13
2023-04-29T09:33:17.086Z,2.05
2023-04-29T09:36:07.776Z,4.20
2023-04-29T09:38:58.434Z,3.33
2023-04-29T09:41:55.425Z,2.58
2023-04-29T09:44:44.004Z,5.15
2023-04-29T09:47:33.038Z,32.47
2023-04-29T09:50:23.290Z,6.28
2023-04-29T09:53:12.328Z,4.43
2023-04-29T09:56:02.263Z,2.25
2023-04-29T09:58:50.123Z,4.22
2023-04-29T10:01:38.385Z,0.73
2023-04-29T10:04:28.169Z,7.50
2023-04-29T10:07:19.366Z,1.95
2023-04-29T10:10:08.539Z,2.55
2023-04-29T10:12:56.980Z,4.13
2023-04-29T10:15:52.786Z,6.18
2023-04-29T10:18:45.302Z,2.88
2023-04-29T10:21:33.795Z,1.77
2023-04-29T10:24:22.884Z,3.55
2023-04-29T10:27:13.577Z,10.98
2023-04-29T10:30:05.330Z,2.22
2023-04-29T10:32:53.289Z,2.03
2023-04-29T10:35:45.377Z,4.40
2023-04-29T10:38:41.958Z,6.05
2023-04-29T10:41:39.159Z,3.92
2023-04-29T10:44:27.015Z,3.60
2023-04-29T10:47:22.223Z,3.85
2023-04-29T10:50:10.676Z,3.20
2023-04-29T10:53:07.529Z,1.63
2023-04-29T10:55:59.334Z,1.08
2023-04-29T11:02:01.136Z,1.08
2023-04-29T11:05:09.501Z,0.80
2023-04-29T11:08:14.102Z,1.35
2023-04-29T11:11:04.485Z,0.40
2023-04-29T11:13:53.072Z,3.28
2023-04-29T11:16:53.611Z,0.32
2023-04-29T11:19:52.754Z,2.38
2023-04-29T11:22:40.932Z,1.60
2023-04-29T11:25:31.606Z,2.47
2023-04-29T11:28:23.206Z,5.05
2023-04-29T11:31:11.266Z,0.55
2023-04-29T11:34:00.775Z,0.30
2023-04-29T11:36:51.539Z,1.05
2023-04-29T11:39:39.637Z,2.53
2023-04-29T11:42:30.095Z,2.58
2023-04-29T11:45:20.913Z,5.55
2023-04-29T11:48:08.652Z,1.10
2023-04-29T11:51:00.397Z,1.58
2023-04-29T11:53:48.279Z,4.88
2023-04-29T11:56:38.721Z,2.13
2023-04-29T11:59:27.267Z,1.95
2023-04-29T12:02:15.138Z,2.92
2023-04-29T12:05:09.664Z,4.68
2023-04-29T12:07:57.533Z,5.05
2023-04-29T12:10:45.276Z,1.67
2023-04-29T12:13:37.976Z,4.05
2023-04-29T12:16:29.858Z,1.35
2023-04-29T12:22:08.232Z,1.95
2023-04-29T12:24:57.761Z,1.48
2023-04-29T12:27:45.597Z,2.53
2023-04-29T12:30:35.999Z,1.05
2023-04-29T12:33:29.551Z,2.47
2023-04-29T12:36:18.758Z,3.97
2023-04-29T12:39:10.433Z,2.47
2023-04-29T12:41:59.819Z,4.07
2023-04-29T12:44:57.900Z,4.57
2023-04-29T12:47:48.306Z,4.07
2023-04-29T12:50:41.261Z,2.58
2023-04-29T12:53:32.902Z,2.03
2023-04-29T12:56:23.738Z,4.05
2023-04-29T12:59:12.968Z,9.80
2023-04-29T13:02:01.656Z,11.55
2023-04-29T13:04:49.752Z,4.90
2023-04-29T13:07:38.330Z,2.90
2023-04-29T13:10:26.205Z,3.58
2023-04-29T13:13:14.001Z,3.67
2023-04-29T13:16:01.810Z,12.32
2023-04-29T13:19:08.135Z,6.53
2023-04-29T13:21:59.841Z,4.57
2023-04-29T13:24:47.849Z,5.00
2023-04-29T13:27:35.640Z,5.15
2023-04-29T13:30:23.902Z,13.30
2023-04-29T13:33:13.285Z,8.93
2023-04-29T13:36:01.731Z,3.22
2023-04-29T13:38:54.677Z,5.65
2023-04-29T13:41:47.022Z,8.73
2023-04-29T13:44:51.060Z,6.85
2023-04-29T13:48:03.831Z,10.70
2023-04-29T13:54:37.318Z,15.20
2023-04-29T13:57:40.156Z,14.80
2023-04-29T14:00:25.460Z,9.77
2023-04-29T14:03:18.947Z,8.35
2023-04-29T14:06:07.524Z,21.60
2023-04-29T14:08:59.275Z,18.27
2023-04-29T14:11:56.325Z,11.93
2023-04-29T14:14:43.985Z,11.45
2023-04-29T14:17:32.283Z,12.50
2023-04-29T14:20:20.815Z,8.07
2023-04-29T14:23:08.726Z,8.38
2023-04-29T14:26:16.669Z,8.15
2023-04-29T14:29:11.271Z,6.30
2023-04-29T14:31:59.112Z,8.75
2023-04-29T14:34:48.090Z,12.25
2023-04-29T14:37:35.673Z,9.15
2023-04-29T14:40:23.401Z,16.73
2023-04-29T14:43:11.084Z,13.70
2023-04-29T14:45:59.116Z,6.53
2023-04-29T14:48:47.322Z,9.10
2023-04-29T14:51:35.505Z,8.82
2023-04-29T14:54:23.327Z,9.57
2023-04-29T14:57:11.196Z,15.15
2023-04-29T14:59:58.920Z,14.60
2023-04-29T15:02:46.656Z,12.05
2023-04-29T15:05:34.873Z,9.32
2023-04-29T15:08:23.046Z,10.95
2023-04-29T15:11:11.061Z,8.32
2023-04-29T15:13:59.133Z,7.38
2023-04-29T15:16:47.065Z,6.35
2023-04-29T15:19:35.891Z,13.77
2023-04-29T15:22:26.218Z,7.40
2023-04-29T15:25:19.865Z,5.57
2023-04-29T15:28:07.586Z,5.45
2023-04-29T15:30:59.998Z,7.75
2023-04-29T15:33:51.722Z,6.30
2023-04-29T15:36:39.394Z,6.47
2023-04-29T15:39:27.086Z,13.50
2023-04-29T15:42:14.731Z,7.32
2023-04-29T15:45:02.522Z,14.10
2023-04-29T15:47:50.314Z,11.15
2023-04-29T15:50:38.190Z,8.52
2023-04-29T15:53:25.970Z,7.13
2023-04-29T15:56:13.830Z,16.65
2023-04-29T15:59:01.572Z,4.88
2023-04-29T16:01:49.445Z,13.02
2023-04-29T16:04:44.675Z,6.78
2023-04-29T16:07:34.235Z,10.10
2023-04-29T16:10:23.733Z,7.80
2023-04-29T16:13:14.237Z,8.40
2023-04-29T16:16:02.496Z,6.55
2023-04-29T16:18:53.594Z,5.05
2023-04-29T16:21:41.698Z,17.47
2023-04-29T16:24:32.433Z,12.02
2023-04-29T16:27:20.218Z,14.85
2023-04-29T16:30:08.732Z,17.95
2023-04-29T16:32:56.777Z,16.23
2023-04-29T16:35:47.942Z,19.08
2023-04-29T16:38:35.702Z,14.80
2023-04-29T16:41:24.316Z,32.83
2023-04-29T16:44:12.015Z,30.13
2023-04-29T16:47:00.048Z,22.15
2023-04-29T16:49:48.162Z,26.88
2023-04-29T16:52:35.758Z,21.25
2023-04-29T16:55:23.635Z,16.23
2023-04-29T16:58:11.302Z,8.43
2023-04-29T17:01:01.342Z,8.77
2023-04-29T17:03:49.832Z,12.85
2023-04-29T17:06:38.562Z,14.93
2023-04-29T17:09:35.267Z,8.88
2023-04-29T17:12:22.993Z,17.17
2023-04-29T17:15:11.151Z,18.63
2023-04-29T17:17:58.929Z,26.30
2023-04-29T17:20:48.760Z,13.15
2023-04-29T17:23:38.724Z,22.20
2023-04-29T17:26:26.610Z,11.43
2023-04-29T17:29:15.105Z,10.80
2023-04-29T17:32:10.462Z,13.23
2023-04-29T17:34:59.607Z,10.20
2023-04-29T17:37:48.066Z,10.15
2023-04-29T17:40:38.601Z,9.82
2023-04-29T17:43:27.541Z,16.52
2023-04-29T17:46:15.259Z,30.25
2023-04-29T17:49:04.286Z,19.58
2023-04-29T17:51:51.999Z,18.30
2023-04-29T17:54:40.954Z,13.15
2023-04-29T17:57:31.409Z,15.80
2023-04-29T18:00:19.325Z,26.08
2023-04-29T18:03:07.150Z,26.13
2023-04-29T18:05:54.860Z,13.18
2023-04-29T18:08:42.544Z,18.40
2023-04-29T18:11:30.332Z,29.38
2023-04-29T18:14:18.021Z,18.13
2023-04-29T18:17:05.715Z,11.73
2023-04-29T18:19:53.755Z,11.13
2023-04-29T18:22:43.812Z,12.77
2023-04-29T18:25:37.366Z,8.80
2023-04-29T18:28:25.950Z,8.57
2023-04-29T18:31:15.222Z,10.50
2023-04-29T18:34:03.085Z,12.05
2023-04-29T18:36:50.848Z,8.60
2023-04-29T18:39:38.547Z,6.35
2023-04-29T18:42:26.948Z,9.90
2023-04-29T18:45:14.861Z,6.45
2023-04-29T18:48:06.965Z,10.68
2023-04-29T18:50:55.910Z,12.90
2023-04-29T18:53:43.688Z,9.63
2023-04-29T18:56:31.816Z,11.25
2023-04-29T18:59:22.365Z,11.35
2023-04-29T19:02:10.037Z,8.82
2023-04-29T19:04:57.864Z,15.38
2023-04-29T19:07:45.883Z,11.13
2023-04-29T19:10:33.619Z,7.78
2023-04-29T19:13:21.461Z,35.47
2023-04-29T19:16:09.312Z,30.88
2023-04-29T19:18:57.024Z,25.38
2023-04-29T19:21:45.262Z,26.23
2023-04-29T19:24:37.254Z,18.38
2023-04-29T19:30:13.996Z,14.02
2023-04-29T19:33:04.590Z,21.65
2023-04-29T19:35:52.360Z,15.55
2023-04-29T19:38:40.346Z,18.35
2023-04-29T19:41:28.171Z,19.88
2023-04-29T19:44:15.985Z,25.38
2023-04-29T19:47:04.113Z,19.90
2023-04-29T19:49:51.940Z,20.48
2023-04-29T19:52:39.943Z,24.90
2023-04-29T19:55:27.696Z,16.35
2023-04-29T19:58:15.538Z,19.17
2023-04-29T20:01:03.270Z,19.98
2023-04-29T20:03:51.056Z,20.05
2023-04-29T20:06:38.887Z,25.27
2023-04-29T20:09:26.803Z,16.83
2023-04-29T20:12:14.610Z,22.02
2023-04-29T20:15:03.160Z,18.20
2023-04-29T20:17:51.085Z,10.60
2023-04-29T20:20:38.833Z,15.82
2023-04-29T20:23:26.528Z,9.98
2023-04-29T20:26:14.734Z,15.32
2023-04-29T20:29:05.014Z,17.42
2023-04-29T20:31:52.935Z,8.88
2023-04-29T20:34:40.657Z,10.85
2023-04-29T20:37:28.753Z,23.35
2023-04-29T20:40:16.958Z,14.02
2023-04-29T20:43:04.973Z,15.75
2023-04-29T20:45:52.735Z,15.80
2023-04-29T20:48:40.472Z,24.23
2023-04-29T20:51:29.782Z,20.85
2023-04-29T20:54:17.578Z,30.88
2023-04-29T20:57:05.931Z,40.05
2023-04-29T20:59:54.056Z,32.45
2023-04-29T21:02:41.953Z,29.65
2023-04-29T21:05:29.801Z,26.05
2023-04-29T21:08:17.562Z,25.70
2023-04-29T21:11:07.978Z,22.80
2023-04-29T21:13:55.776Z,20.42
2023-04-29T21:16:43.611Z,15.10
2023-04-29T21:19:31.326Z,18.77
2023-04-29T21:22:18.997Z,24.60
2023-04-29T21:25:06.999Z,24.10
2023-04-29T21:27:54.793Z,18.70
2023-04-29T21:30:42.484Z,24.35
2023-04-29T21:33:30.246Z,19.50
2023-04-29T21:36:18.288Z,22.55
2023-04-29T21:39:09.902Z,22.00
2023-04-29T21:41:59.384Z,19.98
2023-04-29T21:44:47.617Z,21.15
2023-04-29T21:47:35.696Z,14.52
2023-04-29T21:50:23.419Z,16.92
2023-04-29T21:53:13.795Z,15.77
2023-04-29T21:56:06.602Z,16.00
2023-04-29T21:58:57.122Z,16.73
2023-04-29T22:01:47.916Z,12.75
2023-04-29T22:04:38.873Z,17.83
2023-04-29T22:07:26.867Z,15.18
2023-04-29T22:10:14.624Z,18.52
2023-04-29T22:13:02.335Z,19.98
2023-04-29T22:15:52.569Z,15.27
2023-04-29T22:18:40.450Z,15.82
2023-04-29T22:21:28.472Z,18.27
2023-04-29T22:24:16.224Z,21.67
2023-04-29T22:27:04.772Z,17.35
2023-04-29T22:29:52.602Z,14.95
2023-04-29T22:32:40.954Z,15.65
2023-04-29T22:35:28.877Z,13.00
2023-04-29T22:38:16.664Z,15.63
2023-04-29T22:41:05.112Z,17.98
2023-04-29T22:43:57.564Z,13.38
2023-04-29T22:46:45.551Z,10.15
2023-04-29T22:49:33.157Z,10.95
2023-04-29T22:52:20.811Z,15.13
2023-04-29T22:55:09.468Z,13.43
2023-04-29T22:57:57.058Z,12.35
2023-04-29T23:00:46.282Z,16.40
2023-04-29T23:03:33.980Z,15.68
2023-04-29T23:06:21.685Z,12.85
2023-04-29T23:09:09.454Z,14.80
2023-04-29T23:12:00.165Z,16.38
2023-04-29T23:14:47.874Z,12.73
2023-04-29T23:17:37.770Z,8.13
2023-04-29T23:20:25.753Z,11.52
2023-04-29T23:23:13.477Z,13.90
2023-04-29T23:26:01.316Z,14.90
2023-04-29T23:28:49.217Z,11.50
2023-04-29T23:31:36.859Z,10.77
2023-04-29T23:34:24.560Z,23.65
2023-04-29T23:37:12.296Z,14.60
2023-04-29T23:40:00.124Z,28.35
2023-04-29T23:42:47.758Z,26.05
2023-04-29T23:45:35.594Z,25.00
2023-04-29T23:48:23.245Z,29.05
2023-04-29T23:51:10.985Z,11.63
2023-04-29T23:54:01.653Z,12.57
2023-04-29T23:56:49.326Z,10.23
2023-04-29T23:59:37.057Z,11.30
